CheckWX is a tool to help pilots better visualize weather data.  It is not intended as a substitute for an official pre-flight weather briefing.

05:30:50 UTC

CYQZ METAR
Quesnel Airport
Quesnel, Canada
Current

31 mins ago

CYQZ 180500Z AUTO VRB03KT 9SM -RA OVC075 14/13 A2972 RMK SLP073 DENSITY ALT 2300FT
Observed
Aug-18 @ 05:00 UTC
Wind
  • Variable at 3 KTS
Visibility
9 SM
Flight Rules
VFR
Conditions
Light Rain
Cloud Levels
  • Overcast at 7,500' AGL
Temperature
14°C / 57°F
Dewpoint
13°C / 55°F
Humidity
94%
Altimeter
29.72" Hg
Pressure
1006.42 hPa
Previous

2 hours ago

CYQZ 180400Z AUTO 14003KT 110V180 9SM -RA OVC085 14/13 A2972 RMK SLP073 DENSITY ALT 2300FT
Observed
Aug-18 @ 04:00 UTC
Wind
  • 140° at 3 KTS
Visibility
9 SM
Flight Rules
VFR
Conditions
Light Rain
Cloud Levels
  • Overcast at 8,500' AGL
Temperature
14°C / 57°F
Dewpoint
13°C / 55°F
Humidity
94%
Altimeter
29.72" Hg
Pressure
1006.42 hPa
Previous

3 hours ago

CYQZ 180300Z AUTO VRB02KT 9SM -RA FEW075 OVC090 14/13 A2973 RMK SLP078 DENSITY ALT 2200FT
Observed
Aug-18 @ 03:00 UTC
Wind
  • Variable at 2 KTS
Visibility
9 SM
Flight Rules
VFR
Conditions
Light Rain
Cloud Levels
  • Few at 7,500' AGL
  • Overcast at 9,000' AGL
Temperature
14°C / 57°F
Dewpoint
13°C / 55°F
Humidity
94%
Altimeter
29.73" Hg
Pressure
1006.82 hPa